Time;durP1;ratioP1;P1;durP2;ratioP2;P2;SDS_P1;SDS_P2;PMS_P1;PMS_P2;Temp;Humidity;BMP_temperature;BMP_pressure;BME280_temperature;BME280_humidity;BME280_pressure;Samples;Min_cycle;Max_cycle;Signal;HPM_P1;HPM_P2
2022/04/19 00:00:06;;;;;;;2.60;2.40;;;10.90;99.90;;;;;;5093513;28;20252;-57
2022/04/19 00:02:31;;;;;;;5.93;2.70;;;10.90;99.90;;;;;;5093398;28;20162;-55
2022/04/19 00:04:59;;;;;;;4.53;2.38;;;10.80;99.90;;;;;;5093270;28;20219;-55
2022/04/19 00:07:25;;;;;;;3.90;2.78;;;10.80;99.90;;;;;;5093518;28;20169;-55
2022/04/19 00:09:50;;;;;;;3.80;2.67;;;10.80;99.90;;;;;;5093534;28;20250;-55
2022/04/19 00:12:16;;;;;;;4.50;2.85;;;10.80;99.90;;;;;;5093226;28;20607;-55
2022/04/19 00:14:42;;;;;;;3.47;2.40;;;10.80;99.90;;;;;;5092198;28;20165;-55
2022/04/19 00:17:07;;;;;;;3.15;2.38;;;10.70;99.90;;;;;;5093566;28;20657;-55
2022/04/19 00:19:33;;;;;;;4.78;2.72;;;10.60;99.90;;;;;;5093017;28;20572;-57
2022/04/19 00:21:59;;;;;;;3.03;2.28;;;10.50;99.90;;;;;;5093019;28;20165;-55
2022/04/19 00:24:24;;;;;;;2.67;2.40;;;10.60;99.90;;;;;;5093345;28;20688;-56
2022/04/19 00:26:50;;;;;;;2.42;2.13;;;10.60;99.90;;;;;;5091731;28;20165;-55
2022/04/19 00:29:15;;;;;;;3.95;2.47;;;10.50;99.90;;;;;;5092859;28;20176;-56
2022/04/19 00:31:41;;;;;;;3.22;2.47;;;10.40;99.90;;;;;;5091821;28;20165;-56
2022/04/19 00:34:07;;;;;;;3.60;2.58;;;10.30;99.90;;;;;;5092818;28;20157;-57
2022/04/19 00:36:32;;;;;;;4.57;2.92;;;10.30;99.90;;;;;;5092772;28;20161;-57
2022/04/19 00:38:58;;;;;;;3.75;2.85;;;10.40;99.90;;;;;;5092643;28;20205;-55
2022/04/19 00:41:23;;;;;;;4.28;2.67;;;10.40;99.90;;;;;;5092706;28;20529;-55
2022/04/19 00:43:49;;;;;;;6.28;2.80;;;10.40;99.90;;;;;;5092591;28;20246;-55
2022/04/19 00:46:15;;;;;;;5.68;2.90;;;10.40;99.90;;;;;;5092606;28;20223;-55
2022/04/19 00:48:42;;;;;;;2.97;2.13;;;10.30;99.90;;;;;;5093106;28;20241;-55
2022/04/19 00:51:08;;;;;;;2.92;2.55;;;10.30;99.90;;;;;;5092777;28;20618;-55
2022/04/19 00:53:34;;;;;;;3.25;2.67;;;10.30;99.90;;;;;;5092447;28;20168;-55
2022/04/19 00:56:01;;;;;;;3.95;2.20;;;10.30;99.90;;;;;;5092491;28;20189;-55
2022/04/19 00:58:27;;;;;;;8.73;2.50;;;10.30;99.90;;;;;;5092259;28;20193;-55
2022/04/19 01:00:52;;;;;;;3.30;2.67;;;10.30;99.90;;;;;;5091095;28;20230;-55
2022/04/19 01:03:18;;;;;;;4.30;2.67;;;10.20;99.90;;;;;;5092150;28;20169;-55
2022/04/19 01:05:47;;;;;;;3.70;2.67;;;10.10;99.90;;;;;;5092078;28;20263;-55
2022/04/19 01:08:14;;;;;;;3.35;2.42;;;10.20;99.90;;;;;;5092201;28;20256;-55
2022/04/19 01:10:42;;;;;;;5.00;2.65;;;10.10;99.90;;;;;;5092605;28;20157;-55
2022/04/19 01:13:17;;;;;;;3.75;2.67;;;10.10;99.90;;;;;;5092450;28;20170;-55
2022/04/19 01:15:49;;;;;;;4.07;2.50;;;10.10;99.90;;;;;;5092165;28;20165;-55
2022/04/19 01:18:22;;;;;;;2.85;2.55;;;10.10;99.90;;;;;;5092211;28;20307;-53
2022/04/19 01:20:52;;;;;;;3.60;2.47;;;10.10;99.90;;;;;;5092450;28;20169;-54
2022/04/19 01:23:20;;;;;;;3.60;2.08;;;10.00;99.90;;;;;;5092247;28;20173;-53
2022/04/19 01:25:46;;;;;;;4.20;2.53;;;10.00;99.90;;;;;;5091915;28;20578;-54
2022/04/19 01:28:12;;;;;;;4.80;2.85;;;9.80;99.90;;;;;;5092425;28;20169;-53
2022/04/19 01:30:40;;;;;;;7.43;2.83;;;9.90;99.90;;;;;;5092340;28;20252;-54
2022/04/19 01:33:06;;;;;;;3.88;2.80;;;9.90;99.90;;;;;;5091877;28;20166;-54
2022/04/19 01:35:31;;;;;;;5.97;2.63;;;9.90;99.90;;;;;;5091792;28;20658;-53
2022/04/19 01:37:57;;;;;;;2.85;2.42;;;9.90;99.90;;;;;;5091766;28;20201;-53
2022/04/19 01:40:22;;;;;;;2.50;2.30;;;9.90;99.90;;;;;;5091827;28;20176;-53
2022/04/19 01:42:52;;;;;;;3.97;2.90;;;9.80;99.90;;;;;;5091856;28;20575;-53
2022/04/19 01:45:20;;;;;;;2.95;2.30;;;9.80;99.90;;;;;;5091662;28;20211;-53
2022/04/19 01:47:46;;;;;;;5.35;2.28;;;9.80;99.90;;;;;;5092032;28;20169;-54
2022/04/19 01:50:14;;;;;;;3.05;2.20;;;9.80;99.90;;;;;;5092270;28;20179;-54
2022/04/19 01:52:41;;;;;;;2.30;2.03;;;9.70;99.90;;;;;;5091987;28;20161;-53
2022/04/19 01:55:09;;;;;;;3.30;2.60;;;9.70;99.90;;;;;;5091705;28;20244;-53
2022/04/19 01:57:35;;;;;;;2.60;2.30;;;9.60;99.90;;;;;;5091557;28;20248;-53
2022/04/19 02:00:03;;;;;;;2.30;2.10;;;9.60;99.90;;;;;;5091588;28;20285;-53
2022/04/19 02:02:29;;;;;;;4.00;2.60;;;9.50;99.90;;;;;;5091604;28;20166;-53
2022/04/19 02:04:54;;;;;;;6.15;2.22;;;9.50;99.90;;;;;;5091360;28;20220;-53
2022/04/19 02:07:20;;;;;;;6.65;2.90;;;9.50;99.90;;;;;;5091512;28;20173;-53
2022/04/19 02:09:47;;;;;;;2.95;2.55;;;9.40;99.90;;;;;;5091599;28;20166;-54
2022/04/19 02:12:12;;;;;;;5.32;2.92;;;9.30;99.90;;;;;;5091733;28;20242;-54
2022/04/19 02:14:41;;;;;;;3.42;2.50;;;9.20;99.90;;;;;;5092803;28;20252;-53
2022/04/19 02:17:08;;;;;;;6.15;2.85;;;9.10;99.90;;;;;;5095684;28;20180;-54
2022/04/19 02:19:37;;;;;;;5.57;2.63;;;9.10;99.90;;;;;;5095612;28;20208;-53
2022/04/19 02:22:09;;;;;;;3.60;2.70;;;9.20;99.90;;;;;;5095334;28;20709;-53
2022/04/19 02:24:35;;;;;;;4.00;2.40;;;9.30;99.90;;;;;;5095149;28;20177;-53
2022/04/19 02:27:01;;;;;;;3.22;2.55;;;9.20;99.90;;;;;;5095264;28;20219;-54
2022/04/19 02:29:27;;;;;;;3.08;2.38;;;9.20;99.90;;;;;;5095177;28;20170;-53
2022/04/19 02:31:53;;;;;;;2.75;2.45;;;9.20;99.90;;;;;;5093797;28;20197;-54
2022/04/19 02:34:19;;;;;;;3.35;2.15;;;9.20;99.90;;;;;;5095162;28;20173;-54
2022/04/19 02:36:45;;;;;;;5.57;3.22;;;9.20;99.90;;;;;;5095046;28;20172;-54
2022/04/19 02:39:11;;;;;;;3.10;2.55;;;9.10;99.90;;;;;;5095544;28;20213;-54
2022/04/19 02:41:37;;;;;;;6.13;2.40;;;9.10;99.90;;;;;;5095202;28;20176;-54
2022/04/19 02:44:08;;;;;;;6.47;2.80;;;9.10;99.90;;;;;;5094921;28;20173;-54
2022/04/19 02:46:35;;;;;;;5.97;3.03;;;9.10;99.90;;;;;;5094887;28;20524;-54
2022/04/19 02:49:04;;;;;;;2.75;2.38;;;8.90;99.90;;;;;;5094794;28;20165;-54
2022/04/19 02:51:30;;;;;;;3.97;2.13;;;8.70;99.90;;;;;;5094817;28;20162;-53
2022/04/19 02:53:55;;;;;;;4.65;2.30;;;8.60;99.90;;;;;;5094760;28;20173;-54
2022/04/19 02:56:21;;;;;;;3.05;2.22;;;8.40;99.90;;;;;;5094936;28;20172;-53
2022/04/19 02:58:46;;;;;;;5.25;3.05;;;8.50;99.90;;;;;;5094581;28;20201;-54
2022/04/19 03:01:12;;;;;;;3.83;2.80;;;8.40;99.90;;;;;;5094919;28;20527;-54
2022/04/19 03:03:38;;;;;;;4.35;3.10;;;8.20;99.90;;;;;;5094864;28;20182;-54
2022/04/19 03:06:03;;;;;;;7.10;2.95;;;8.30;99.90;;;;;;5094357;28;20221;-54
2022/04/19 03:08:32;;;;;;;5.07;2.72;;;8.40;99.90;;;;;;5094495;28;20180;-54
2022/04/19 03:10:58;;;;;;;3.95;3.50;;;8.50;99.90;;;;;;5094474;28;20565;-54
2022/04/19 03:13:24;;;;;;;4.97;3.35;;;8.60;99.90;;;;;;5094649;28;20181;-54
2022/04/19 03:15:49;;;;;;;4.70;3.17;;;8.60;99.90;;;;;;5092973;28;20536;-54
2022/04/19 03:18:15;;;;;;;3.75;2.90;;;8.50;99.90;;;;;;5092859;28;20250;-54
2022/04/19 03:20:43;;;;;;;3.13;2.25;;;8.40;99.90;;;;;;5094798;28;20519;-54
2022/04/19 03:28:37;;;;;;;4.15;2.78;;;8.30;99.90;;;;;;5094041;28;20180;-53
2022/04/19 03:31:02;;;;;;;3.47;2.47;;;8.20;99.90;;;;;;5094021;28;20165;-53
2022/04/19 03:33:28;;;;;;;4.18;3.30;;;8.30;99.90;;;;;;5094266;28;20703;-54
2022/04/19 03:35:56;;;;;;;3.15;2.67;;;8.30;99.90;;;;;;5093971;28;20157;-53
2022/04/19 03:38:22;;;;;;;4.63;3.25;;;8.40;99.90;;;;;;5094127;28;20197;-53
2022/04/19 03:40:47;;;;;;;4.15;3.20;;;8.40;99.90;;;;;;5094098;28;20265;-54
2022/04/19 03:43:13;;;;;;;5.40;2.92;;;8.40;99.90;;;;;;5093805;28;20250;-54
2022/04/19 03:45:38;;;;;;;4.60;2.90;;;8.30;99.90;;;;;;5094066;28;20165;-54
2022/04/19 03:48:05;;;;;;;7.38;3.03;;;8.20;99.90;;;;;;5092485;28;20224;-54
2022/04/19 03:50:32;;;;;;;5.40;3.40;;;8.10;99.90;;;;;;5093813;28;20205;-54
2022/04/19 03:52:57;;;;;;;4.63;3.35;;;8.10;99.90;;;;;;5092383;28;20158;-54
2022/04/19 03:55:23;;;;;;;4.70;3.30;;;8.00;99.90;;;;;;5093587;28;20182;-54
2022/04/19 03:57:49;;;;;;;5.55;2.92;;;7.90;99.90;;;;;;5093405;28;20157;-54
2022/04/19 04:00:15;;;;;;;5.55;3.13;;;8.00;99.90;;;;;;5093671;28;20179;-54
2022/04/19 04:02:40;;;;;;;4.57;3.63;;;8.00;99.90;;;;;;5093729;28;20157;-54
2022/04/19 04:05:06;;;;;;;3.25;2.95;;;8.00;99.90;;;;;;5093250;28;20266;-54
2022/04/19 04:07:32;;;;;;;4.78;2.78;;;8.00;99.90;;;;;;5093744;28;21104;-54
2022/04/19 04:09:58;;;;;;;5.22;3.45;;;8.00;99.90;;;;;;5093525;28;20180;-54
2022/04/19 04:12:24;;;;;;;5.20;3.40;;;8.00;99.90;;;;;;5093194;28;20174;-54
2022/04/19 04:14:49;;;;;;;4.70;3.50;;;8.10;99.90;;;;;;5093275;28;20169;-54
2022/04/19 04:17:17;;;;;;;5.13;3.22;;;8.00;99.90;;;;;;5093104;28;20214;-54
2022/04/19 04:19:43;;;;;;;7.43;3.33;;;8.00;99.90;;;;;;5092987;28;20228;-54
2022/04/19 04:22:09;;;;;;;9.35;3.25;;;8.00;99.90;;;;;;5092018;28;20677;-54
2022/04/19 04:24:34;;;;;;;6.20;3.22;;;8.00;99.90;;;;;;5092981;28;20192;-54
2022/04/19 04:27:00;;;;;;;3.85;3.35;;;7.90;99.90;;;;;;5093045;28;20537;-54
2022/04/19 04:29:25;;;;;;;2.80;2.50;;;7.80;99.90;;;;;;5093182;28;20161;-54
2022/04/19 04:31:51;;;;;;;4.03;3.22;;;7.80;99.90;;;;;;5092908;28;20161;-54
2022/04/19 04:34:16;;;;;;;3.13;2.58;;;7.60;99.90;;;;;;5092816;28;20161;-54
2022/04/19 04:36:42;;;;;;;3.95;2.90;;;7.50;99.90;;;;;;5092953;28;20167;-53
2022/04/19 04:39:07;;;;;;;8.70;3.33;;;7.60;99.90;;;;;;5091220;28;20207;-53
2022/04/19 04:41:33;;;;;;;8.05;3.42;;;7.60;99.90;;;;;;5092677;28;20165;-53
2022/04/19 04:43:59;;;;;;;8.30;3.63;;;7.60;99.90;;;;;;5092837;28;20169;-53
2022/04/19 04:51:53;;;;;;;14.02;3.65;;;7.60;99.90;;;;;;5092419;28;20172;-53
2022/04/19 04:54:19;;;;;;;8.77;3.80;;;7.80;99.90;;;;;;5092202;28;20173;-54
2022/04/19 04:56:44;;;;;;;9.68;3.22;;;7.90;99.90;;;;;;5092255;28;20170;-53
2022/04/19 04:59:09;;;;;;;7.13;3.13;;;7.90;99.90;;;;;;5092511;28;20205;-53
2022/04/19 05:01:35;;;;;;;7.78;3.28;;;7.80;99.90;;;;;;5092162;28;20169;-53
2022/04/19 05:04:01;;;;;;;7.43;3.03;;;7.90;99.90;;;;;;5092322;28;20214;-53
2022/04/19 05:06:26;;;;;;;8.80;3.20;;;7.80;99.90;;;;;;5092015;28;20231;-53
2022/04/19 05:08:52;;;;;;;6.38;3.60;;;7.90;99.90;;;;;;5092201;28;20597;-54
2022/04/19 05:11:17;;;;;;;7.13;3.50;;;7.80;99.90;;;;;;5092107;28;20172;-53
2022/04/19 05:13:42;;;;;;;4.63;3.17;;;7.90;99.90;;;;;;5092125;28;20618;-54
2022/04/19 05:16:08;;;;;;;7.00;3.00;;;7.90;99.90;;;;;;5092397;28;20169;-54
2022/04/19 05:18:34;;;;;;;4.53;2.75;;;7.90;99.90;;;;;;5091962;28;20193;-52
2022/04/19 05:20:59;;;;;;;7.97;3.00;;;8.10;99.90;;;;;;5091984;28;20656;-53
2022/04/19 05:23:25;;;;;;;15.40;3.95;;;8.20;99.90;;;;;;5092296;28;20647;-53
2022/04/19 05:25:50;;;;;;;4.95;3.17;;;8.40;99.90;;;;;;5092113;28;20217;-53
2022/04/19 05:28:16;;;;;;;6.15;3.15;;;8.40;99.90;;;;;;5091957;28;20634;-53
2022/04/19 05:30:42;;;;;;;5.43;3.30;;;8.50;99.90;;;;;;5092195;28;20235;-53
2022/04/19 05:33:07;;;;;;;9.65;4.25;;;8.60;99.90;;;;;;5092177;28;20526;-54
2022/04/19 05:35:33;;;;;;;4.03;3.13;;;8.70;99.90;;;;;;5091924;28;20196;-53
2022/04/19 05:37:59;;;;;;;5.40;3.35;;;8.80;99.90;;;;;;5091802;28;20170;-53
2022/04/19 05:40:25;;;;;;;7.40;3.40;;;8.80;99.90;;;;;;5092017;28;20535;-53
2022/04/19 05:42:51;;;;;;;5.72;3.05;;;8.90;99.90;;;;;;5091777;28;20687;-53
2022/04/19 05:45:17;;;;;;;5.55;3.60;;;8.90;99.90;;;;;;5092029;28;20181;-52
2022/04/19 05:47:43;;;;;;;5.53;3.60;;;9.10;99.90;;;;;;5090428;28;20220;-53
2022/04/19 05:50:08;;;;;;;4.63;3.25;;;9.10;99.90;;;;;;5094044;28;20265;-53
2022/04/19 05:52:34;;;;;;;5.43;3.90;;;9.10;99.90;;;;;;5096254;28;20171;-52
2022/04/19 05:54:59;;;;;;;5.25;3.90;;;9.10;99.90;;;;;;5095857;28;20169;-53
2022/04/19 05:57:25;;;;;;;6.03;3.60;;;9.10;99.90;;;;;;5095795;28;20165;-54
2022/04/19 05:59:50;;;;;;;7.20;4.00;;;9.20;99.90;;;;;;5095949;28;20212;-53
2022/04/19 06:05:00;;;;;;;7.47;4.05;;;9.40;99.90;;;;;;5095768;28;20728;-54
2022/04/19 06:07:29;;;;;;;7.03;4.00;;;9.50;99.90;;;;;;5095667;28;20165;-53
2022/04/19 06:09:55;;;;;;;13.70;3.40;;;9.60;99.90;;;;;;5095729;28;20165;-54
2022/04/19 06:12:21;;;;;;;5.53;3.60;;;9.70;99.90;;;;;;5095924;28;20169;-55
2022/04/19 06:14:46;;;;;;;4.80;3.60;;;9.80;99.90;;;;;;5095589;28;20728;-53
2022/04/19 06:17:14;;;;;;;9.95;4.03;;;10.00;99.90;;;;;;5095809;28;20176;-54
2022/04/19 06:19:40;;;;;;;5.07;3.08;;;10.30;99.90;;;;;;5095880;28;20204;-54
2022/04/19 06:22:06;;;;;;;8.27;3.70;;;10.40;99.90;;;;;;5095480;28;20172;-54
2022/04/19 06:24:31;;;;;;;9.10;3.67;;;10.50;99.90;;;;;;5094185;28;21190;-55
2022/04/19 06:26:57;;;;;;;7.07;3.70;;;10.60;99.90;;;;;;5095305;28;20171;-54
2022/04/19 06:29:22;;;;;;;5.07;3.20;;;10.60;99.90;;;;;;5094041;28;20174;-54
2022/04/19 06:31:48;;;;;;;14.57;3.70;;;10.60;99.90;;;;;;5095273;28;20270;-54
2022/04/19 06:34:14;;;;;;;11.32;3.97;;;10.70;99.90;;;;;;5095228;28;20170;-53
2022/04/19 06:36:39;;;;;;;16.40;4.75;;;10.70;99.90;;;;;;5095516;28;20166;-54
2022/04/19 06:39:05;;;;;;;17.48;4.43;;;11.00;99.90;;;;;;5094985;28;20569;-54
2022/04/19 06:41:30;;;;;;;24.50;5.20;;;11.10;99.90;;;;;;5095102;28;20165;-53
2022/04/19 06:43:58;;;;;;;20.27;3.80;;;11.20;99.90;;;;;;5094997;28;20173;-54
2022/04/19 06:46:26;;;;;;;8.50;3.67;;;11.50;99.90;;;;;;5094828;28;20542;-54
2022/04/19 06:48:56;;;;;;;12.60;4.07;;;11.50;99.90;;;;;;5094755;28;20242;-54
2022/04/19 06:51:22;;;;;;;7.60;3.70;;;11.50;99.90;;;;;;5095130;28;20234;-54
2022/04/19 06:53:48;;;;;;;10.02;3.58;;;11.50;99.90;;;;;;5095025;28;20170;-54
2022/04/19 06:56:15;;;;;;;9.18;3.30;;;11.80;99.90;;;;;;5094823;28;20252;-54
2022/04/19 06:58:40;;;;;;;8.48;3.47;;;11.90;99.90;;;;;;5095000;28;20193;-54
2022/04/19 07:01:07;;;;;;;10.35;3.80;;;11.90;99.90;;;;;;5094170;28;20264;-54
2022/04/19 07:03:33;;;;;;;6.05;3.30;;;12.00;99.90;;;;;;5094645;28;20166;-54
2022/04/19 07:05:59;;;;;;;5.47;3.42;;;12.10;99.90;;;;;;5094375;28;20220;-53
2022/04/19 07:08:25;;;;;;;11.90;4.28;;;12.20;99.90;;;;;;5094606;28;20166;-55
2022/04/19 07:10:50;;;;;;;8.95;4.10;;;12.40;99.90;;;;;;5092446;28;20184;-59
2022/04/19 07:13:16;;;;;;;9.88;4.18;;;12.50;99.90;;;;;;5093376;28;20179;-51
2022/04/19 07:15:41;;;;;;;5.80;3.40;;;12.50;99.90;;;;;;5093836;28;20563;-52
2022/04/19 07:18:07;;;;;;;14.13;4.25;;;12.70;99.90;;;;;;5093458;28;20549;-55
2022/04/19 07:28:47;;;;;;;11.55;4.57;;;13.00;99.90;;;;;;5093173;28;20188;-51
2022/04/19 07:31:13;;;;;;;7.93;4.38;;;13.10;99.90;;;;;;5093143;28;20614;-50
2022/04/19 07:33:39;;;;;;;7.28;4.00;;;13.10;99.90;;;;;;5093429;28;20196;-53
2022/04/19 07:36:06;;;;;;;10.75;4.22;;;13.30;99.90;;;;;;5093073;28;20252;-48
2022/04/19 07:38:31;;;;;;;8.63;4.60;;;13.40;99.90;;;;;;5092445;28;20213;-50
2022/04/19 07:40:57;;;;;;;6.32;4.20;;;13.50;99.90;;;;;;5092746;28;20256;-52
2022/04/19 07:43:23;;;;;;;7.88;3.75;;;13.50;99.90;;;;;;5092889;28;20174;-56
2022/04/19 07:45:49;;;;;;;8.25;4.90;;;13.60;99.90;;;;;;5092524;28;20162;-53
2022/04/19 07:48:15;;;;;;;8.25;4.28;;;13.80;99.90;;;;;;5092579;28;20532;-50
2022/04/19 07:50:42;;;;;;;7.75;4.50;;;13.80;99.90;;;;;;5091140;28;20169;-48
2022/04/19 07:53:09;;;;;;;15.63;4.60;;;14.00;99.90;;;;;;5092676;28;20618;-47
2022/04/19 07:55:35;;;;;;;7.53;4.25;;;14.00;99.90;;;;;;5092766;28;20280;-49
2022/04/19 07:58:01;;;;;;;11.05;5.30;;;14.10;99.90;;;;;;5092431;28;20162;-51
2022/04/19 08:00:27;;;;;;;6.75;5.13;;;14.10;99.90;;;;;;5092180;28;20184;-50
2022/04/19 08:02:57;;;;;;;9.90;5.07;;;14.30;99.90;;;;;;5090909;28;20581;-52
2022/04/19 08:05:24;;;;;;;7.88;4.70;;;14.40;99.90;;;;;;5092013;28;20320;-54
2022/04/19 08:07:49;;;;;;;6.32;4.38;;;14.50;99.90;;;;;;5092237;28;20176;-49
2022/04/19 08:10:16;;;;;;;6.60;4.80;;;14.60;99.90;;;;;;5092287;28;20157;-49
2022/04/19 08:12:41;;;;;;;7.45;4.20;;;14.60;99.90;;;;;;5091388;28;20621;-50
2022/04/19 08:15:08;;;;;;;9.90;4.97;;;14.70;99.90;;;;;;5092460;28;20165;-50
2022/04/19 08:17:34;;;;;;;8.52;5.25;;;14.70;99.90;;;;;;5091639;28;20611;-52
2022/04/19 08:20:01;;;;;;;7.68;4.45;;;14.70;99.90;;;;;;5092111;28;20300;-55
2022/04/19 08:22:26;;;;;;;11.88;5.32;;;14.80;99.90;;;;;;5092092;28;20193;-48
2022/04/19 08:24:52;;;;;;;8.55;4.90;;;14.80;99.90;;;;;;5090574;28;20197;-50
2022/04/19 08:27:18;;;;;;;15.10;6.70;;;15.20;99.90;;;;;;5091996;28;20685;-49
2022/04/19 08:29:44;;;;;;;11.07;5.53;;;15.10;99.90;;;;;;5091644;28;20265;-51
2022/04/19 08:32:10;;;;;;;7.85;5.03;;;15.40;99.90;;;;;;5091946;28;20252;-48
2022/04/19 08:34:35;;;;;;;8.13;6.00;;;15.40;99.90;;;;;;5091718;28;20174;-55
2022/04/19 08:37:02;;;;;;;8.80;5.70;;;15.40;99.30;;;;;;5091522;28;20629;-52
2022/04/19 08:39:28;;;;;;;8.35;5.25;;;15.40;99.90;;;;;;5091755;28;20277;-51
2022/04/19 08:41:54;;;;;;;8.40;5.43;;;15.60;99.90;;;;;;5091484;28;20162;-55
2022/04/19 08:44:19;;;;;;;9.25;5.63;;;15.80;99.90;;;;;;5091468;28;20240;-55
2022/04/19 08:46:46;;;;;;;9.82;5.68;;;15.80;99.90;;;;;;5090025;28;20169;-53
2022/04/19 08:49:12;;;;;;;10.15;5.75;;;15.90;99.70;;;;;;5091882;28;20195;-51
2022/04/19 08:51:40;;;;;;;8.25;5.45;;;15.90;98.10;;;;;;5091598;28;20261;-54
2022/04/19 08:59:37;;;;;;;13.13;6.25;;;16.40;94.30;;;;;;5091459;28;20208;-51
2022/04/19 09:02:05;;;;;;;13.35;6.18;;;16.50;94.60;;;;;;5091130;28;20161;-53
2022/04/19 09:04:30;;;;;;;8.40;6.15;;;16.60;93.00;;;;;;5090912;28;20177;-53
2022/04/19 09:06:59;;;;;;;9.27;5.85;;;16.30;90.20;;;;;;5091319;28;20316;-52
2022/04/19 09:09:26;;;;;;;9.07;6.13;;;16.40;91.10;;;;;;5091087;28;20181;-51
2022/04/19 09:11:54;;;;;;;9.15;6.40;;;16.70;90.40;;;;;;5091518;28;20627;-51
2022/04/19 09:14:22;;;;;;;8.13;6.20;;;16.90;90.00;;;;;;5091206;28;20204;-53
2022/04/19 09:16:56;;;;;;;7.10;6.22;;;17.00;90.30;;;;;;5092373;28;20234;-52
2022/04/19 09:19:30;;;;;;;9.43;6.82;;;17.10;88.80;;;;;;5092021;28;20224;-52
2022/04/19 09:21:56;;;;;;;9.65;6.85;;;17.20;86.40;;;;;;5092276;28;20191;-52
2022/04/19 09:24:23;;;;;;;9.77;7.20;;;17.10;86.40;;;;;;5091698;28;20184;-51
2022/04/19 09:26:49;;;;;;;7.93;6.30;;;17.10;85.80;;;;;;5091965;28;20222;-50
2022/04/19 09:29:25;;;;;;;7.93;6.85;;;17.20;87.00;;;;;;5092007;28;20194;-51
2022/04/19 09:32:01;;;;;;;10.57;7.20;;;17.30;87.50;;;;;;5091910;28;20172;-51
2022/04/19 09:34:29;;;;;;;11.20;7.00;;;17.40;86.20;;;;;;5091804;28;20199;-50
2022/04/19 09:37:11;;;;;;;8.52;6.15;;;17.20;84.10;;;;;;5092053;28;20256;-50
2022/04/19 09:39:38;;;;;;;9.85;6.63;;;16.90;84.80;;;;;;5092151;28;20207;-51
2022/04/19 09:42:12;;;;;;;10.50;7.05;;;17.20;85.10;;;;;;5091544;28;20165;-50
2022/04/19 09:44:39;;;;;;;8.85;7.18;;;17.30;81.90;;;;;;5092022;28;20195;-50
2022/04/19 09:47:15;;;;;;;10.20;6.95;;;17.50;81.90;;;;;;5091946;28;20250;-50
2022/04/19 09:49:47;;;;;;;9.18;6.63;;;17.70;82.70;;;;;;5092269;28;20172;-51
2022/04/19 09:52:22;;;;;;;9.82;7.10;;;17.60;79.70;;;;;;5091670;28;20168;-51
2022/04/19 09:55:04;;;;;;;14.50;7.22;;;17.60;81.10;;;;;;5091697;28;20235;-50
2022/04/19 09:57:32;;;;;;;12.77;7.75;;;17.90;81.00;;;;;;5091761;28;20526;-51
2022/04/19 09:59:59;;;;;;;13.23;7.07;;;17.90;80.00;;;;;;5091397;28;20615;-52
2022/04/19 10:08:11;;;;;;;9.05;7.05;;;18.20;79.80;;;;;;5091610;28;20705;-52
2022/04/19 10:10:51;;;;;;;10.93;7.18;;;18.60;80.70;;;;;;5092135;28;20596;-52
2022/04/19 10:13:18;;;;;;;10.45;7.63;;;18.70;79.70;;;;;;5091758;28;20173;-52
2022/04/19 10:15:44;;;;;;;10.45;8.13;;;18.60;76.70;;;;;;5091320;28;20660;-51
2022/04/19 10:18:10;;;;;;;11.75;7.43;;;18.60;77.20;;;;;;5091790;28;20188;-52
2022/04/19 10:20:55;;;;;;;12.60;7.95;;;18.70;78.30;;;;;;5091652;28;20184;-53
2022/04/19 10:23:31;;;;;;;9.63;7.95;;;18.80;77.50;;;;;;5091764;28;20177;-52
2022/04/19 10:26:14;;;;;;;12.60;8.40;;;18.70;76.40;;;;;;5091393;28;20205;-52
2022/04/19 10:28:41;;;;;;;10.57;6.95;;;20.80;79.10;;;;;;5091698;28;20177;-52
2022/04/19 10:31:07;;;;;;;10.32;7.28;;;18.60;76.70;;;;;;5091401;28;20252;-52
2022/04/19 10:33:39;;;;;;;14.73;7.75;;;18.90;76.90;;;;;;5090129;28;20178;-52
2022/04/19 10:36:34;;;;;;;9.10;7.18;;;18.80;75.60;;;;;;5092831;28;20520;-52
2022/04/19 10:39:11;;;;;;;9.38;7.50;;;19.00;76.90;;;;;;5095241;28;20205;-52
2022/04/19 10:41:52;;;;;;;11.00;7.97;;;19.10;75.80;;;;;;5095408;28;20165;-51
2022/04/19 10:44:29;;;;;;;14.38;8.70;;;19.10;75.60;;;;;;5095108;28;20169;-52
2022/04/19 10:47:14;;;;;;;11.73;8.18;;;19.10;76.60;;;;;;5094900;28;20189;-52
2022/04/19 10:50:04;;;;;;;9.10;7.40;;;19.20;76.40;;;;;;5095091;28;20699;-52
2022/04/19 10:52:39;;;;;;;9.35;7.25;;;19.10;72.80;;;;;;5095144;28;20243;-52
2022/04/19 10:55:18;;;;;;;12.98;9.05;;;19.40;73.50;;;;;;5094803;28;20164;-52
2022/04/19 10:58:12;;;;;;;13.65;9.27;;;19.30;75.00;;;;;;5094958;28;20180;-52
2022/04/19 11:00:40;;;;;;;9.73;7.95;;;19.40;74.80;;;;;;5093666;28;20173;-52
2022/04/19 11:03:06;;;;;;;13.30;8.52;;;19.60;77.50;;;;;;5094477;28;20161;-51
2022/04/19 11:05:36;;;;;;;10.15;7.60;;;19.70;74.20;;;;;;5094465;28;20225;-51
2022/04/19 11:08:19;;;;;;;15.73;7.22;;;19.70;75.10;;;;;;5094757;28;20254;-52
2022/04/19 11:10:45;;;;;;;8.32;6.47;;;19.80;73.60;;;;;;5094418;28;20177;-52
2022/04/19 11:13:11;;;;;;;6.55;5.95;;;20.00;73.90;;;;;;5094734;28;20219;-51
2022/04/19 11:15:37;;;;;;;7.30;5.93;;;20.00;71.50;;;;;;5094998;28;20180;-52
2022/04/19 11:18:23;;;;;;;10.07;5.55;;;19.50;69.90;;;;;;5094246;28;20555;-52
2022/04/19 11:20:52;;;;;;;8.73;5.57;;;19.50;70.80;;;;;;5094459;28;20177;-52
2022/04/19 11:23:22;;;;;;;7.53;5.57;;;19.80;71.50;;;;;;5094276;28;20196;-51
2022/04/19 11:25:49;;;;;;;10.80;5.60;;;19.70;70.60;;;;;;5094281;28;20162;-52
2022/04/19 11:28:16;;;;;;;7.03;5.35;;;20.00;72.80;;;;;;5094148;28;20619;-52
2022/04/19 11:30:44;;;;;;;6.45;5.50;;;19.80;71.40;;;;;;5094173;28;20573;-52
2022/04/19 11:33:10;;;;;;;7.03;5.40;;;19.90;72.10;;;;;;5094378;28;20157;-52
2022/04/19 11:35:36;;;;;;;6.63;5.40;;;19.60;69.40;;;;;;5094257;28;20173;-52
2022/04/19 11:38:08;;;;;;;10.77;5.95;;;19.70;67.50;;;;;;5093892;28;20606;-51
2022/04/19 11:49:02;;;;;;;7.18;5.15;;;20.10;72.40;;;;;;5093023;28;20168;-51
2022/04/19 11:51:30;;;;;;;8.40;5.28;;;20.10;70.40;;;;;;5093702;28;20250;-52
2022/04/19 11:53:55;;;;;;;6.78;5.45;;;20.20;70.60;;;;;;5093911;28;20169;-51
2022/04/19 11:56:21;;;;;;;7.70;5.05;;;20.20;70.60;;;;;;5093633;28;20169;-51
2022/04/19 11:58:49;;;;;;;9.43;5.72;;;20.00;68.20;;;;;;5093510;28;20199;-51
2022/04/19 12:01:14;;;;;;;9.15;4.95;;;20.30;71.00;;;;;;5093808;28;20174;-51
2022/04/19 12:03:40;;;;;;;10.38;5.35;;;20.10;68.50;;;;;;5094003;28;20165;-51
2022/04/19 12:06:11;;;;;;;6.78;5.20;;;20.40;70.70;;;;;;5093214;28;20228;-52
2022/04/19 12:08:41;;;;;;;6.32;4.50;;;20.30;69.50;;;;;;5094084;28;20173;-51
2022/04/19 12:11:08;;;;;;;7.25;5.43;;;19.90;68.10;;;;;;5093862;28;20192;-51
2022/04/19 12:13:38;;;;;;;5.80;5.20;;;19.90;69.40;;;;;;5093259;28;20168;-52
2022/04/19 12:16:07;;;;;;;9.80;5.43;;;20.10;69.00;;;;;;5093472;28;20499;-51
2022/04/19 12:18:37;;;;;;;6.63;5.10;;;20.30;70.60;;;;;;5093071;28;20201;-51
2022/04/19 12:21:04;;;;;;;6.00;4.65;;;20.30;69.40;;;;;;5093073;28;20184;-51
2022/04/19 12:23:34;;;;;;;9.32;4.20;;;20.40;70.50;;;;;;5093096;28;20166;-52
2022/04/19 12:26:01;;;;;;;8.23;4.82;;;20.00;67.50;;;;;;5092910;28;20174;-52
2022/04/19 12:28:46;;;;;;;6.80;4.95;;;20.30;69.10;;;;;;5093123;28;20181;-52
2022/04/19 12:31:34;;;;;;;5.97;4.45;;;20.40;69.10;;;;;;5093228;28;20162;-52
2022/04/19 12:34:04;;;;;;;8.40;4.80;;;20.40;69.10;;;;;;5093071;28;20174;-50
2022/04/19 12:36:46;;;;;;;7.13;5.13;;;20.40;69.30;;;;;;5092775;28;20195;-52
2022/04/19 12:39:12;;;;;;;6.18;4.80;;;20.40;70.00;;;;;;5092587;28;20212;-51
2022/04/19 12:41:39;;;;;;;9.90;5.57;;;20.40;71.30;;;;;;5093031;28;20172;-51
2022/04/19 12:44:07;;;;;;;6.47;5.75;;;20.50;71.00;;;;;;5091788;28;20417;-52
2022/04/19 12:46:38;;;;;;;7.53;4.70;;;20.50;71.30;;;;;;5092673;28;20161;-51
2022/04/19 12:49:04;;;;;;;8.00;5.07;;;20.40;70.90;;;;;;5092617;28;20161;-51
2022/04/19 12:51:29;;;;;;;8.10;4.70;;;20.50;70.40;;;;;;5092872;28;20176;-52
2022/04/19 12:54:06;;;;;;;7.50;4.90;;;20.50;69.50;;;;;;5092475;28;20499;-52
2022/04/19 12:56:38;;;;;;;7.13;5.20;;;20.60;69.60;;;;;;5092494;28;20165;-51
2022/04/19 12:59:03;;;;;;;12.98;5.22;;;20.70;69.80;;;;;;5091836;28;20193;-51
2022/04/19 13:01:29;;;;;;;5.70;4.85;;;20.70;71.40;;;;;;5092284;28;20169;-51
2022/04/19 13:03:54;;;;;;;6.75;4.60;;;20.70;71.10;;;;;;5092561;28;20245;-51
2022/04/19 13:14:33;;;;;;;5.07;4.57;;;20.70;69.00;;;;;;5092179;28;20603;-51
2022/04/19 13:16:58;;;;;;;6.47;5.07;;;20.60;68.80;;;;;;5092146;28;20200;-52
2022/04/19 13:19:24;;;;;;;4.40;4.00;;;20.70;70.30;;;;;;5092051;28;20201;-52
2022/04/19 13:21:50;;;;;;;7.38;5.05;;;20.70;68.30;;;;;;5092053;28;20169;-52
2022/04/19 13:24:15;;;;;;;5.25;3.92;;;20.40;68.60;;;;;;5092339;28;20173;-52
2022/04/19 13:26:41;;;;;;;6.03;4.60;;;20.30;68.10;;;;;;5092300;28;20172;-51
2022/04/19 13:29:08;;;;;;;6.03;3.88;;;20.30;68.10;;;;;;5092257;28;20243;-51
2022/04/19 13:31:33;;;;;;;6.97;4.25;;;20.20;68.40;;;;;;5091949;28;20529;-51
2022/04/19 13:33:59;;;;;;;6.72;4.85;;;20.50;69.40;;;;;;5091785;28;20176;-52
2022/04/19 13:36:24;;;;;;;7.70;4.88;;;20.60;69.40;;;;;;5092109;28;20178;-52
2022/04/19 13:38:50;;;;;;;7.25;4.28;;;20.40;68.00;;;;;;5091772;28;20525;-52